Terminal Aerodrome Forecast
Issued by NWS

Home | Current Version | Previous Version | Graphics & Text | Print | Product List | Glossary On
Versions: 1 2 3 4 5 6 7 8 9 10 11 12 13 14 15 16
000
FTUS43 KICT 261728
TAFHUT
TAF
KHUT 261728Z 2618/2718 21008KT P6SM SCT070
      TEMPO 2618/2621 BKN070
     FM262100 VRB06KT P6SM SCT060
     FM270000 07006KT P6SM VCTS SCT060CB BKN090
     FM270300 09007KT P6SM SCT090
     FM271400 14007KT P6SM SCT040
     FM271700 16012KT P6SM FEW070=

USA.gov is the U.S. government's official web portal to all federal, state and local government web resources and services.